Terminal Aerodrome Forecast
Issued by NWS

Home | Current Version | Previous Version | Text Only | Print | Product List | Glossary On
Versions: 1 2 3 4 5 6 7 8 9 10 11 12
906
FTUS45 KTFX 111138
TAFGTF
TAF
KGTF 111138Z 1112/1212 23015KT P6SM SCT100 BKN150
     FM111800 26015G25KT P6SM SCT150 BKN200
     FM112300 05005KT P6SM SCT050 BKN110
     FM120400 05009KT P6SM SCT040 BKN070=

USA.gov is the U.S. government's official web portal to all federal, state and local government web resources and services.